Data for 09/20/2014

Time Sea-Level Adjusted Pressure Absolute Pressure Temperature Relative Humidity Dew Point   
(mb) (inHg) (mb) (inHg) (C) (F) (%) (C) (F)
00:05 1023 30.21 852 25.16 11.1 51.9 65 4.8 40.6
00:10 1023 30.21 852 25.16 10.9 51.6 64 4.5 40.1
00:15 1023 30.21 852 25.16 11 51.9 64 4.5 40.2
00:20 1023 30.21 852 25.16 10.9 51.6 65 4.7 40.5
00:25 1023 30.21 852 25.16 10.8 51.4 64 4.4 39.9
00:30 1023 30.21 852 25.16 11 51.8 64 4.5 40.1
00:35 1023 30.21 852 25.16 11.1 52.1 63 4.5 40.1
00:40 1023 30.21 852 25.16 11.2 52.2 63 4.5 40.2
00:45 1023 30.21 852 25.16 11 51.8 64 4.5 40.1
00:50 1023 30.21 852 25.16 11.1 51.9 64 4.5 40.1
00:55 1023 30.21 852 25.16 11 51.9 64 4.5 40
01:00 1023 30.21 853 25.19 11 51.8 64 4.5 40.1
01:05 1023 30.21 853 25.19 10.9 51.5 65 4.6 40.4
01:10 1023 30.21 853 25.19 10.7 51.3 65 4.4 39.9
01:15 1023 30.21 853 25.19 10.7 51.3 65 4.4 39.9
01:20 1023 30.21 852 25.16 10.7 51.2 65 4.4 39.9
01:25 1023 30.21 852 25.16 10.8 51.5 64 4.3 39.8
01:30 1023 30.21 852 25.16 10.9 51.6 64 4.4 40
01:35 1023 30.21 853 25.19 10.9 51.7 64 4.4 39.9
01:40 1023 30.21 853 25.19 10.8 51.4 65 4.6 40.3
01:45 1023 30.21 853 25.19 10.5 50.9 66 4.5 40.1
01:50 1023 30.21 853 25.19 10.3 50.6 66 4.4 39.9
01:55 1023 30.21 853 25.19 10.4 50.7 65 4.2 39.6
02:00 1023 30.21 853 25.19 10.7 51.2 65 4.4 39.9
02:05 1024 30.24 853 25.19 10.6 51.2 65 4.4 40
02:10 1024 30.24 853 25.19 10.4 50.7 66 4.4 39.9
02:15 1024 30.24 853 25.19 10.3 50.6 65 4.2 39.5
02:20 1024 30.24 853 25.19 10.5 51 66 4.4 39.9
02:25 1024 30.24 853 25.19 10.4 50.8 65 4.3 39.7
02:30 1024 30.24 853 25.19 10.3 50.5 67 4.5 40.1
02:35 1024 30.24 853 25.19 9.9 49.9 68 4.4 39.8
02:40 1024 30.24 853 25.19 9.9 49.8 67 4.2 39.6
02:45 1024 30.24 853 25.19 10.5 50.8 65 4.2 39.5
02:50 1024 30.24 853 25.19 10.4 50.7 66 4.4 40
02:55 1024 30.24 853 25.19 9.9 49.8 68 4.4 39.9
03:00 1024 30.24 853 25.19 9.5 49.2 69 4.2 39.6
03:05 1024 30.24 853 25.19 9.5 49.1 70 4.4 39.9
03:10 1024 30.24 853 25.19 9.1 48.3 72 4.2 39.6
03:15 1024 30.24 853 25.19 9.3 48.7 70 4.2 39.5
03:20 1024 30.24 853 25.19 9.3 48.7 70 4.2 39.5
03:25 1024 30.24 853 25.19 9.5 49.2 70 4.3 39.7
03:30 1024 30.24 853 25.19 9.6 49.3 69 4.2 39.5
03:35 1024 30.24 853 25.19 9.5 49.1 70 4.3 39.8
03:40 1024 30.24 854 25.22 9.1 48.4 72 4.4 39.8
03:45 1024 30.24 854 25.22 8.7 47.7 74 4.3 39.7
03:50 1024 30.24 854 25.22 8.6 47.6 73 4.1 39.4
03:55 1024 30.24 854 25.22 8.8 47.8 73 4.2 39.5
04:00 1024 30.24 854 25.22 8.7 47.6 73 4.1 39.4
04:05 1024 30.24 854 25.22 8.9 48 70 3.7 38.6
04:10 1024 30.24 854 25.22 9.7 49.4 68 4.1 39.3
04:15 1025 30.27 854 25.22 9.6 49.3 68 4.1 39.3
04:20 1025 30.27 854 25.22 9.6 49.3 68 4.1 39.3
04:25 1025 30.27 854 25.22 9.6 49.4 68 4.1 39.4
04:30 1025 30.27 854 25.22 9.6 49.3 67 3.9 39
04:35 1025 30.27 854 25.22 9.7 49.4 68 4.1 39.5
04:40 1025 30.27 854 25.22 9.4 49 69 4.1 39.5
04:45 1025 30.27 854 25.22 9.1 48.4 71 4.1 39.3
04:50 1025 30.27 854 25.22 9 48.2 71 4.1 39.4
04:55 1025 30.27 854 25.22 8.8 47.9 71 3.9 39.1
05:00 1025 30.27 854 25.22 8.9 48.1 71 4 39.2
05:05 1025 30.27 854 25.22 8.8 47.9 72 4 39.3
05:10 1025 30.27 854 25.22 8.5 47.2 73 4 39.2
05:15 1025 30.27 854 25.22 8.3 47 74 4 39.1
05:20 1025 30.27 854 25.22 8.3 46.9 74 3.9 39
05:25 1025 30.27 854 25.22 8.5 47.3 72 3.7 38.7
05:30 1025 30.27 854 25.22 8.9 47.9 70 3.8 38.8
05:35 1025 30.27 854 25.22 8.8 47.8 72 4.1 39.3
05:40 1025 30.27 854 25.22 8.4 47 73 3.8 38.9
05:45 1025 30.27 854 25.22 8.5 47.3 70 3.4 38.1
05:50 1025 30.27 854 25.22 8.9 48 71 3.9 39
05:55 1025 30.27 854 25.22 8.7 47.6 71 3.8 38.9
06:00 1025 30.27 854 25.22 8.6 47.5 72 3.8 38.9
06:05 1025 30.27 854 25.22 8.4 47.1 73 3.9 39
06:10 1025 30.27 855 25.25 8.2 46.7 74 3.8 38.8
06:15 1025 30.27 855 25.25 8 46.4 75 3.8 38.9
06:20 1025 30.27 855 25.25 7.7 45.8 77 3.8 38.9
06:25 1025 30.27 855 25.25 7.5 45.5 76 3.5 38.3
06:30 1026 30.3 855 25.25 7.7 45.8 75 3.6 38.5
06:35 1026 30.3 855 25.25 7.9 46.1 74 3.5 38.4
06:40 1026 30.3 855 25.25 8 46.3 74 3.7 38.7
06:45 1026 30.3 855 25.25 7.9 46.3 73 3.4 38.2
06:50 1026 30.3 855 25.25 8.5 47.2 71 3.6 38.5
06:55 1026 30.3 855 25.25 8.8 47.8 70 3.6 38.5
07:00 1026 30.3 855 25.25 9.1 48.4 69 3.8 38.8
07:05 1026 30.3 855 25.25 9.3 48.7 69 4 39.2
07:10 1026 30.3 855 25.25 9.4 48.9 68 3.9 39.1
07:15 1026 30.3 855 25.25 9.7 49.4 68 4.1 39.5
07:20 1026 30.3 855 25.25 9.9 49.8 67 4.1 39.4
07:25 1026 30.3 855 25.25 10.3 50.5 66 4.1 39.4
07:30 1026 30.3 855 25.25 10.8 51.4 64 4.2 39.5
07:35 1026 30.3 855 25.25 11.1 52 63 4.4 39.9
07:40 1026 30.3 855 25.25 11.2 52.1 64 4.6 40.2
07:45 1026 30.3 855 25.25 11.2 52.2 64 4.6 40.3
07:50 1026 30.3 855 25.25 11.8 53.2 62 4.8 40.7
07:55 1026 30.3 855 25.25 12.1 53.8 61 4.9 40.9
08:00 1026 30.3 855 25.25 12.8 55 59 5.1 41.2
08:05 1026 30.3 855 25.25 13.3 55.9 58 5.3 41.6
08:10 1026 30.3 855 25.25 13.7 56.7 58 5.6 42.1
08:15 1026 30.3 855 25.25 14.5 58.1 55 5.7 42.3
08:20 1026 30.3 855 25.25 15.1 59.3 53 5.6 42.2
08:25 1026 30.3 855 25.25 15.8 60.4 51 5.7 42.2
08:30 1026 30.3 856 25.28 15.8 60.4 51 5.7 42.2
08:35 1026 30.3 856 25.28 16.4 61.5 47 5.1 41.1
08:40 1026 30.3 856 25.28 16.6 61.8 46 5 40.9
08:45 1026 30.3 856 25.28 16.3 61.3 48 5.3 41.5
08:50 1026 30.3 856 25.28 16.5 61.6 49 5.8 42.4
08:55 1026 30.3 856 25.28 17 62.6 47 5.7 42.3
09:00 1026 30.3 856 25.28 17.6 63.7 47 6.2 43.2
09:05 1026 30.3 856 25.28 17.8 64.1 46 6.2 43.1
09:10 1027 30.33 856 25.28 17.9 64.1 46 6.2 43.2
09:15 1027 30.33 856 25.28 17.9 64.2 44 5.7 42.2
09:20 1027 30.33 856 25.28 17.9 64.1 46 6.2 43.2
09:25 1027 30.33 856 25.28 17.6 63.6 48 6.4 43.6
09:30 1027 30.33 856 25.28 17.1 62.7 47 5.8 42.4
09:35 1027 30.33 856 25.28 17.6 63.6 46 6.1 42.9
09:40 1027 30.33 856 25.28 17.6 63.6 42 4.7 40.4
09:45 1027 30.33 856 25.28 18 64.5 42 4.9 40.9
09:50 1026 30.3 856 25.28 17.9 64.3 40 4.2 39.5
09:55 1026 30.3 856 25.28 18.4 65.1 38 3.9 39
10:00 1026 30.3 856 25.28 18.8 65.8 39 4.8 40.7
10:05 1026 30.3 856 25.28 18.6 65.4 38 3.9 39.1
10:10 1026 30.3 856 25.28 19 66.1 38 4.3 39.7
10:15 1026 30.3 856 25.28 18.7 65.7 38 4.4 40
10:20 1026 30.3 856 25.28 19.3 66.8 35 3.5 38.4
10:25 1026 30.3 856 25.28 19 66.2 39 5.1 41.1
10:30 1026 30.3 856 25.28 18.4 65 36 3.1 37.7
10:35 1026 30.3 856 25.28 18.5 65.2 37 3.8 38.9
10:40 1026 30.3 856 25.28 18.3 64.9 36 2.9 37.2
10:45 1026 30.3 856 25.28 19 66.1 35 3.5 38.3
10:50 1026 30.3 856 25.28 19.6 67.2 37 4.5 40
10:55 1026 30.3 856 25.28 19.9 67.8 33 3.2 37.8
11:00 1026 30.3 856 25.28 20.4 68.6 33 3.8 38.8
11:05 1026 30.3 856 25.28 19.8 67.6 34 3.6 38.5
11:10 1026 30.3 855 25.25 20.3 68.6 32 3.4 38.1
11:15 1026 30.3 855 25.25 20.8 69.5 31 3.3 38
11:20 1026 30.3 855 25.25 20.6 69 32 3.5 38.2
11:25 1026 30.3 855 25.25 19.6 67.2 32 2.7 36.8
11:30 1026 30.3 855 25.25 19.4 67 33 3 37.4
11:35 1026 30.3 855 25.25 19.4 66.8 33 2.8 37
11:40 1026 30.3 855 25.25 19.2 66.5 35 3.3 38
11:45 1026 30.3 855 25.25 19.9 67.9 33 3.2 37.7
11:50 1026 30.3 855 25.25 20.6 69 31 3 37.4
11:55 1026 30.3 855 25.25 21.2 70.2 30 3 37.3
12:00 1026 30.3 855 25.25 20.5 68.8 31 3 37.4
12:05 1026 30.3 855 25.25 20.5 68.9 31 3.1 37.6
12:10 1026 30.3 855 25.25 21.5 70.8 29 3 37.4
12:15 1026 30.3 855 25.25 21.6 70.8 30 3.6 38.5
12:20 1026 30.3 855 25.25 20.9 69.7 30 2.8 37.1
12:25 1026 30.3 855 25.25 21 69.7 30 3 37.4
12:30 1026 30.3 855 25.25 20.6 69.1 30 2.6 36.7
12:35 1026 30.3 855 25.25 21.2 70.1 29 2.4 36.3
12:40 1026 30.3 855 25.25 21.8 71.3 27 2.4 36.3
12:45 1026 30.3 855 25.25 20.7 69.3 29 2.4 36.4
12:50 1026 30.3 855 25.25 20.9 69.7 29 2.4 36.3
12:55 1026 30.3 855 25.25 21.6 70.9 27 2.1 35.8
13:00 1026 30.3 855 25.25 21.5 70.8 28 2.4 36.3
13:05 1026 30.3 855 25.25 20.6 69.1 29 2.2 35.9
13:10 1026 30.3 855 25.25 21 69.7 27 1.5 34.7
13:15 1026 30.3 855 25.25 21.7 71 26 1.8 35.2
13:20 1025 30.27 855 25.25 22.5 72.4 25 1.8 35.3
13:25 1025 30.27 855 25.25 23 73.4 23 1 33.8
13:30 1025 30.27 855 25.25 22.7 72.8 24 1.2 34.1
13:35 1025 30.27 855 25.25 22.2 72 23 0.6 33
13:40 1025 30.27 855 25.25 22.9 73.3 23 0.8 33.5
13:45 1025 30.27 854 25.22 22 71.6 22 -0.4 31.3
13:50 1025 30.27 854 25.22 22.5 72.4 23 0.4 32.7
13:55 1025 30.27 854 25.22 22.2 71.9 23 0.5 32.9
14:00 1025 30.27 854 25.22 22.8 73 21 -0.4 31.3
14:05 1025 30.27 854 25.22 23.3 73.9 21 -0.1 31.8
14:10 1025 30.27 854 25.22 23.6 74.5 19 -1.3 29.6
14:15 1025 30.27 854 25.22 23.7 74.6 19 -1.1 29.9
14:20 1025 30.27 854 25.22 23.4 74 21 0.1 32.2
14:25 1025 30.27 854 25.22 23.4 74.2 20 -0.6 30.9
14:30 1025 30.27 854 25.22 23.7 74.7 20 -0.6 31
14:35 1025 30.27 854 25.22 24 75.3 21 0.4 32.7
14:40 1025 30.27 854 25.22 24 75.3 19 -0.7 30.7
14:45 1025 30.27 854 25.22 23.6 74.4 20 -0.5 31
14:50 1025 30.27 854 25.22 23.8 74.8 19 -0.9 30.3
14:55 1025 30.27 854 25.22 23.7 74.6 20 -0.2 31.6
15:00 1025 30.27 854 25.22 24 75.1 18 -1.6 29.2
15:05 1025 30.27 854 25.22 24.1 75.4 15 -3.5 25.7
15:10 1025 30.27 854 25.22 23.7 74.6 17 -2.8 27
15:15 1025 30.27 854 25.22 24 75.1 17 -2.6 27.3
15:20 1025 30.27 854 25.22 23.8 74.8 16 -3.2 26.2
15:25 1025 30.27 854 25.22 24.1 75.3 17 -2.6 27.3
15:30 1025 30.27 854 25.22 24 75.2 18 -1.8 28.7
15:35 1024 30.24 854 25.22 24 75.2 17 -2 28.3
15:40 1024 30.24 854 25.22 24.1 75.4 17 -2.2 28
15:45 1024 30.24 854 25.22 24 75.2 14 -5.2 22.6
15:50 1024 30.24 854 25.22 23 73.4 14 -5.6 22
15:55 1024 30.24 854 25.22 23.4 74 17 -2.7 27.1
16:00 1024 30.24 854 25.22 24 75.1 18 -1.5 29.2
16:05 1024 30.24 854 25.22 23.9 75.1 19 -1.2 29.8
16:10 1024 30.24 854 25.22 23.6 74.5 20 -0.7 30.7
16:15 1024 30.24 854 25.22 23.8 74.8 19 -1.3 29.7
16:20 1024 30.24 854 25.22 23.6 74.4 19 -1.5 29.2
16:25 1024 30.24 854 25.22 23.5 74.2 17 -2.5 27.5
16:30 1024 30.24 854 25.22 23.5 74.4 17 -2.4 27.7
16:35 1024 30.24 854 25.22 23.7 74.6 16 -3 26.6
16:40 1024 30.24 853 25.19 23.7 74.6 17 -2.9 26.8
16:45 1024 30.24 853 25.19 23.6 74.5 17 -3 26.6
16:50 1024 30.24 853 25.19 23.6 74.4 16 -3.6 25.5
16:55 1024 30.24 853 25.19 23.5 74.3 17 -2.9 26.7
17:00 1024 30.24 853 25.19 23.4 74.2 15 -4.3 24.3
17:05 1024 30.24 853 25.19 23.6 74.6 15 -4.5 23.9
17:10 1024 30.24 853 25.19 23.6 74.4 14 -4.9 23.2
17:15 1024 30.24 853 25.19 23.5 74.3 14 -4.9 23.2
17:20 1024 30.24 853 25.19 23.5 74.4 14 -5 22.9
17:25 1024 30.24 853 25.19 23.2 73.8 15 -4.6 23.8
17:30 1024 30.24 853 25.19 22.6 72.6 15 -5.1 22.9
17:35 1024 30.24 853 25.19 22.1 71.7 15 -5.7 21.7
17:40 1024 30.24 853 25.19 21.7 71 15 -6 21.1
17:45 1024 30.24 853 25.19 21.5 70.8 17 -4.5 23.9
17:50 1024 30.24 853 25.19 21.4 70.5 18 -3.4 25.9
17:55 1024 30.24 853 25.19 21.3 70.3 20 -2.5 27.4
18:00 1024 30.24 853 25.19 21.1 70 19 -3 26.6
18:05 1024 30.24 853 25.19 21 69.8 20 -2.5 27.5
18:10 1024 30.24 853 25.19 20.8 69.5 21 -1.9 28.7
18:15 1024 30.24 853 25.19 20.6 69.2 23 -1.2 29.8
18:20 1024 30.24 853 25.19 20.4 68.8 24 -0.4 31.3
18:25 1024 30.24 854 25.22 20.1 68.1 27 0.8 33.4
18:30 1024 30.24 854 25.22 18.6 65.4 35 2.8 37
18:35 1025 30.27 854 25.22 17.9 64.1 33 1.7 35
18:40 1025 30.27 854 25.22 17.7 63.8 36 2.4 36.4
18:45 1025 30.27 854 25.22 17.4 63.3 40 3.6 38.5
18:50 1025 30.27 854 25.22 17.5 63.6 40 4.1 39.4
18:55 1025 30.27 854 25.22 17.6 63.7 40 4.2 39.5
19:00 1025 30.27 854 25.22 17.7 63.8 42 4.8 40.6
19:05 1025 30.27 854 25.22 17.7 63.8 41 4.5 40.1
19:10 1025 30.27 854 25.22 17.7 63.8 42 4.6 40.2
19:15 1025 30.27 854 25.22 17.5 63.5 43 4.9 40.8
19:20 1025 30.27 854 25.22 17.3 63.2 43 4.7 40.5
19:25 1025 30.27 854 25.22 17.2 62.9 43 4.7 40.5
19:30 1025 30.27 854 25.22 17.2 62.9 42 4.4 39.9
19:35 1025 30.27 854 25.22 17.2 63 42 4.2 39.6
19:40 1025 30.27 854 25.22 17.3 63.1 42 4.3 39.7
19:45 1025 30.27 854 25.22 17.3 63.1 41 4 39.3
19:50 1025 30.27 854 25.22 17.3 63.1 41 4.1 39.3
19:55 1025 30.27 854 25.22 17.4 63.2 40 3.7 38.7
20:00 1025 30.27 854 25.22 17.5 63.5 39 3.5 38.4
20:05 1025 30.27 854 25.22 17.5 63.5 39 3.7 38.7
20:10 1025 30.27 854 25.22 17.4 63.2 39 3.3 38
20:15 1025 30.27 854 25.22 17.4 63.2 39 3.4 38.2
20:20 1025 30.27 854 25.22 17.2 62.9 40 3.7 38.7
20:25 1025 30.27 854 25.22 16.9 62.4 41 3.7 38.7
20:30 1025 30.27 854 25.22 16.7 62.1 42 3.9 39
20:35 1025 30.27 854 25.22 16.6 61.9 43 3.9 39.1
20:40 1025 30.27 854 25.22 16.6 61.9 43 4.1 39.4
20:45 1025 30.27 854 25.22 16.6 61.9 43 4.2 39.6
20:50 1025 30.27 854 25.22 16.6 61.8 44 4.2 39.6
20:55 1025 30.27 854 25.22 16.4 61.5 45 4.4 40
21:00 1025 30.27 854 25.22 16.2 61.2 45 4.4 39.8
21:05 1025 30.27 854 25.22 16.1 60.9 46 4.4 39.9
21:10 1025 30.27 854 25.22 16 60.8 46 4.4 39.9
21:15 1025 30.27 854 25.22 15.9 60.6 46 4.4 40
21:20 1025 30.27 854 25.22 15.9 60.6 46 4.3 39.8
21:25 1025 30.27 854 25.22 15.9 60.6 46 4.4 39.9
21:30 1025 30.27 854 25.22 15.9 60.6 46 4.3 39.7
21:35 1025 30.27 854 25.22 15.9 60.6 46 4.3 39.8
21:40 1025 30.27 854 25.22 15.9 60.6 46 4.3 39.8
21:45 1025 30.27 854 25.22 15.8 60.5 46 4.3 39.8
21:50 1025 30.27 854 25.22 15.8 60.4 46 4.4 39.8
21:55 1025 30.27 854 25.22 15.7 60.3 46 4.3 39.7
22:00 1025 30.27 854 25.22 15.7 60.3 46 4.3 39.8
22:05 1025 30.27 854 25.22 15.7 60.2 46 4.3 39.7
22:10 1025 30.27 854 25.22 15.6 60.1 47 4.3 39.8
22:15 1025 30.27 854 25.22 15.5 59.9 47 4.3 39.7
22:20 1025 30.27 854 25.22 15.4 59.7 47 4.2 39.6
22:25 1025 30.27 855 25.25 15.4 59.8 47 4.2 39.5
22:30 1025 30.27 855 25.25 15.4 59.7 47 4.3 39.7
22:35 1025 30.27 855 25.25 15.3 59.6 47 4.2 39.6
22:40 1025 30.27 855 25.25 15.3 59.6 47 4.2 39.6
22:45 1025 30.27 855 25.25 15.3 59.5 47 4.1 39.4
22:50 1025 30.27 855 25.25 15.3 59.5 47 4.2 39.5
22:55 1025 30.27 855 25.25 15.3 59.5 47 4.1 39.3
23:00 1025 30.27 855 25.25 15.2 59.4 47 4 39.2
23:05 1025 30.27 855 25.25 15.2 59.4 47 4 39.2
23:10 1025 30.27 855 25.25 15.1 59.2 47 4 39.3
23:15 1025 30.27 855 25.25 15 59 47 4 39.1
23:20 1025 30.27 855 25.25 14.9 58.8 48 4 39.3
23:25 1025 30.27 855 25.25 14.9 58.8 47 3.9 38.9
23:30 1025 30.27 855 25.25 15 59 47 3.8 38.9
23:35 1026 30.3 855 25.25 15 59 47 3.9 39.1
23:40 1026 30.3 855 25.25 14.9 58.8 47 3.9 39
23:45 1026 30.3 855 25.25 14.9 58.8 47 3.8 38.9
23:50 1026 30.3 855 25.25 14.9 58.7 48 3.9 39.1
23:55 1026 30.3 855 25.25 14.8 58.6 48 4 39.2
24:00 1026 30.3 855 25.25 14.5 58.2 49 4 39.3